Time,TemperatureF,DewpointF,PressureIn,WindDirection,WindDirectionDegrees,WindSpeedMPH,WindSpeedGustMPH,Humidity,HourlyPrecipIn,Conditions,Clouds,dailyrainin,SoftwareType,DateUTC
2013-09-28 00:10:00,45.5,45.0,30.29,NE,45,0.0,-999.0,98,-99.99,,,0.00,Acu-Link.com,2013-09-28 04:10:00,
2013-09-28 00:25:00,45.3,44.8,30.29,NNE,22,0.0,-999.0,98,-99.99,,,0.00,Acu-Link.com,2013-09-28 04:25:00,
2013-09-28 00:40:00,45.0,44.5,30.29,ENE,67,0.0,-999.0,98,-99.99,,,0.00,Acu-Link.com,2013-09-28 04:40:00,
2013-09-28 00:55:00,44.8,44.3,30.30,NE,45,0.0,-999.0,98,-99.99,,,0.00,Acu-Link.com,2013-09-28 04:55:00,
2013-09-28 01:11:00,44.4,43.9,30.30,NNE,22,0.0,-999.0,98,-99.99,,,0.00,Acu-Link.com,2013-09-28 05:11:00,
2013-09-28 01:26:00,44.2,43.7,30.30,NNE,22,0.0,-999.0,98,-99.99,,,0.00,Acu-Link.com,2013-09-28 05:26:00,
2013-09-28 01:41:00,43.9,43.4,30.30,NE,45,0.0,-999.0,98,-99.99,,,0.00,Acu-Link.com,2013-09-28 05:41:00,
2013-09-28 01:57:00,43.7,43.2,30.30,ENE,67,0.0,-999.0,98,-99.99,,,0.00,Acu-Link.com,2013-09-28 05:57:00,
2013-09-28 02:12:00,43.5,43.0,30.30,NE,45,0.0,-999.0,98,-99.99,,,0.00,Acu-Link.com,2013-09-28 06:12:00,
2013-09-28 02:27:00,43.0,42.5,30.30,NNE,22,0.0,-999.0,98,-99.99,,,0.00,Acu-Link.com,2013-09-28 06:27:00,
2013-09-28 02:43:00,43.0,42.5,30.30,ENE,67,0.0,-999.0,98,-99.99,,,0.00,Acu-Link.com,2013-09-28 06:43:00,
2013-09-28 02:58:00,42.8,42.3,30.31,ENE,67,0.0,-999.0,98,-99.99,,,0.00,Acu-Link.com,2013-09-28 06:58:00,
2013-09-28 03:13:00,42.6,42.1,30.31,NE,45,0.0,-999.0,98,-99.99,,,0.00,Acu-Link.com,2013-09-28 07:13:00,
2013-09-28 03:28:00,42.8,42.3,30.31,East,90,0.0,-999.0,98,-99.99,,,0.00,Acu-Link.com,2013-09-28 07:28:00,
2013-09-28 03:44:00,42.8,42.3,30.31,ESE,112,0.0,-999.0,98,-99.99,,,0.00,Acu-Link.com,2013-09-28 07:44:00,
2013-09-28 03:59:00,42.8,42.3,30.31,NE,45,0.0,-999.0,98,-99.99,,,0.00,Acu-Link.com,2013-09-28 07:59:00,
2013-09-28 04:14:00,42.8,42.3,30.31,NNE,22,0.0,-999.0,98,-99.99,,,0.00,Acu-Link.com,2013-09-28 08:14:00,
2013-09-28 04:30:00,42.8,42.3,30.31,North,0,0.0,-999.0,98,-99.99,,,0.00,Acu-Link.com,2013-09-28 08:30:00,
2013-09-28 04:45:00,42.8,42.3,30.31,NNE,22,0.0,-999.0,98,-99.99,,,0.00,Acu-Link.com,2013-09-28 08:45:00,
2013-09-28 05:00:00,42.8,42.3,30.31,NE,45,0.0,-999.0,98,-99.99,,,0.00,Acu-Link.com,2013-09-28 09:00:00,
2013-09-28 05:15:00,42.6,42.1,30.31,NE,45,0.0,-999.0,98,-99.99,,,0.00,Acu-Link.com,2013-09-28 09:15:00,
2013-09-28 05:31:00,42.6,42.1,30.31,NNE,22,0.0,-999.0,98,-99.99,,,0.00,Acu-Link.com,2013-09-28 09:31:00,
2013-09-28 05:46:00,42.6,42.1,30.32,NNE,22,0.0,-999.0,98,-99.99,,,0.00,Acu-Link.com,2013-09-28 09:46:00,
2013-09-28 06:01:00,42.4,41.9,30.32,NNE,22,0.0,-999.0,98,-99.99,,,0.00,Acu-Link.com,2013-09-28 10:01:00,
2013-09-28 06:16:00,42.3,41.8,30.32,NE,45,0.0,-999.0,98,-99.99,,,0.00,Acu-Link.com,2013-09-28 10:16:00,
2013-09-28 06:31:00,42.1,41.6,30.32,NE,45,0.0,-999.0,98,-99.99,,,0.00,Acu-Link.com,2013-09-28 10:31:00,
2013-09-28 06:47:00,42.1,41.6,30.33,NE,45,0.0,-999.0,98,-99.99,,,0.00,Acu-Link.com,2013-09-28 10:47:00,
2013-09-28 07:02:00,41.9,41.4,30.33,NE,45,0.0,-999.0,98,-99.99,,,0.00,Acu-Link.com,2013-09-28 11:02:00,
2013-09-28 07:18:00,41.7,41.2,30.34,NE,45,0.0,-999.0,98,-99.99,,,0.00,Acu-Link.com,2013-09-28 11:18:00,
2013-09-28 07:33:00,41.5,41.0,30.34,NE,45,0.0,-999.0,98,-99.99,,,0.00,Acu-Link.com,2013-09-28 11:33:00,
2013-09-28 07:49:00,43.0,42.5,30.36,NE,45,0.0,-999.0,98,-99.99,,,0.00,Acu-Link.com,2013-09-28 11:49:00,
2013-09-28 08:04:00,44.2,43.7,30.36,NE,45,0.0,-999.0,98,-99.99,,,0.00,Acu-Link.com,2013-09-28 12:04:00,
2013-09-28 08:19:00,46.0,45.5,30.37,NNW,337,0.0,-999.0,98,-99.99,,,0.00,Acu-Link.com,2013-09-28 12:19:00,
2013-09-28 08:34:00,46.9,46.4,30.37,WNW,292,0.0,-999.0,98,-99.99,,,0.00,Acu-Link.com,2013-09-28 12:34:00,
2013-09-28 08:50:00,47.8,47.3,30.37,NNE,22,2.2,-999.0,98,-99.99,,,0.00,Acu-Link.com,2013-09-28 12:50:00,
2013-09-28 09:05:00,49.5,49.0,30.37,North,0,2.2,-999.0,98,-99.99,,,0.00,Acu-Link.com,2013-09-28 13:05:00,
2013-09-28 09:20:00,50.5,50.0,30.37,NNW,337,2.2,-999.0,98,-99.99,,,0.00,Acu-Link.com,2013-09-28 13:20:00,
2013-09-28 09:36:00,51.6,51.1,30.37,NNW,337,2.2,-999.0,98,-99.99,,,0.00,Acu-Link.com,2013-09-28 13:36:00,
2013-09-28 09:51:00,53.2,52.6,30.37,WSW,247,0.0,-999.0,98,-99.99,,,0.00,Acu-Link.com,2013-09-28 13:51:00,
2013-09-28 10:07:00,54.3,53.7,30.37,SSW,202,1.7,-999.0,98,-99.99,,,0.00,Acu-Link.com,2013-09-28 14:07:00,
2013-09-28 10:22:00,55.6,55.0,30.37,West,270,0.0,-999.0,98,-99.99,,,0.00,Acu-Link.com,2013-09-28 14:22:00,
2013-09-28 10:37:00,57.0,56.4,30.36,SW,225,1.1,-999.0,98,-99.99,,,0.00,Acu-Link.com,2013-09-28 14:37:00,
2013-09-28 10:52:00,58.5,56.8,30.36,SSW,202,0.0,-999.0,94,-99.99,,,0.00,Acu-Link.com,2013-09-28 14:52:00,
2013-09-28 11:08:00,60.1,58.1,30.36,NNE,22,0.0,-999.0,93,-99.99,,,0.00,Acu-Link.com,2013-09-28 15:08:00,
2013-09-28 11:23:00,62.1,58.5,30.36,WNW,292,2.2,-999.0,88,-99.99,,,0.00,Acu-Link.com,2013-09-28 15:23:00,
2013-09-28 11:38:00,63.7,58.1,30.35,SW,225,1.7,-999.0,82,-99.99,,,0.00,Acu-Link.com,2013-09-28 15:38:00,
2013-09-28 11:54:00,65.5,58.8,30.35,NE,45,0.0,-999.0,79,-99.99,,,0.00,Acu-Link.com,2013-09-28 15:54:00,
2013-09-28 12:09:00,67.6,58.2,30.35,ESE,112,1.7,-999.0,72,-99.99,,,0.00,Acu-Link.com,2013-09-28 16:09:00,
2013-09-28 12:24:00,68.7,56.9,30.34,ESE,112,1.1,-999.0,66,-99.99,,,0.00,Acu-Link.com,2013-09-28 16:24:00,
2013-09-28 12:39:00,68.4,54.9,30.34,West,270,1.1,-999.0,62,-99.99,,,0.00,Acu-Link.com,2013-09-28 16:39:00,
2013-09-28 12:55:00,69.4,54.9,30.33,East,90,0.0,-999.0,60,-99.99,,,0.00,Acu-Link.com,2013-09-28 16:55:00,
2013-09-28 13:10:00,69.1,53.2,30.32,ESE,112,0.0,-999.0,57,-99.99,,,0.00,Acu-Link.com,2013-09-28 17:10:00,
2013-09-28 13:25:00,68.9,52.5,30.32,NNE,22,1.7,-999.0,56,-99.99,,,0.00,Acu-Link.com,2013-09-28 17:25:00,
2013-09-28 13:40:00,69.3,53.4,30.31,NNE,22,0.0,-999.0,57,-99.99,,,0.00,Acu-Link.com,2013-09-28 17:40:00,
2013-09-28 13:56:00,69.1,52.7,30.31,NNW,337,3.2,-999.0,56,-99.99,,,0.00,Acu-Link.com,2013-09-28 17:56:00,
2013-09-28 14:11:00,70.3,53.4,30.30,ESE,112,1.7,-999.0,55,-99.99,,,0.00,Acu-Link.com,2013-09-28 18:11:00,
2013-09-28 14:26:00,69.4,53.5,30.30,SE,135,0.0,-999.0,57,-99.99,,,0.00,Acu-Link.com,2013-09-28 18:26:00,
2013-09-28 14:41:00,72.3,52.6,30.30,SSE,157,2.2,-999.0,50,-99.99,,,0.00,Acu-Link.com,2013-09-28 18:41:00,
2013-09-28 14:56:00,71.4,54.4,30.29,ESE,112,0.0,-999.0,55,-99.99,,,0.00,Acu-Link.com,2013-09-28 18:56:00,
2013-09-28 15:27:00,72.1,54.5,30.29,SSW,202,0.0,-999.0,54,-99.99,,,0.00,Acu-Link.com,2013-09-28 19:27:00,
2013-09-28 15:42:00,72.3,54.7,30.28,WSW,247,0.0,-999.0,54,-99.99,,,0.00,Acu-Link.com,2013-09-28 19:42:00,
2013-09-28 15:57:00,74.3,55.5,30.28,ESE,112,1.7,-999.0,52,-99.99,,,0.00,Acu-Link.com,2013-09-28 19:57:00,
2013-09-28 16:13:00,73.9,55.2,30.27,South,180,0.0,-999.0,52,-99.99,,,0.00,Acu-Link.com,2013-09-28 20:13:00,
2013-09-28 16:28:00,71.6,56.5,30.27,West,270,0.0,-999.0,59,-99.99,,,0.00,Acu-Link.com,2013-09-28 20:28:00,
2013-09-28 16:43:00,71.4,56.8,30.27,SSW,202,0.0,-999.0,60,-99.99,,,0.00,Acu-Link.com,2013-09-28 20:43:00,
2013-09-28 16:58:00,70.3,56.7,30.27,SW,225,0.0,-999.0,62,-99.99,,,0.00,Acu-Link.com,2013-09-28 20:58:00,
2013-09-28 17:29:00,65.5,55.1,30.27,South,180,0.0,-999.0,69,-99.99,,,0.00,Acu-Link.com,2013-09-28 21:29:00,
2013-09-28 17:45:00,64.0,54.4,30.27,SSW,202,0.0,-999.0,71,-99.99,,,0.00,Acu-Link.com,2013-09-28 21:45:00,
2013-09-28 18:00:00,62.8,54.4,30.28,South,180,0.0,-999.0,74,-99.99,,,0.00,Acu-Link.com,2013-09-28 22:00:00,
2013-09-28 18:15:00,61.9,53.9,30.28,SSE,157,0.0,-999.0,75,-99.99,,,0.00,Acu-Link.com,2013-09-28 22:15:00,
2013-09-28 18:30:00,61.0,53.7,30.28,South,180,0.0,-999.0,77,-99.99,,,0.00,Acu-Link.com,2013-09-28 22:30:00,
2013-09-28 18:46:00,59.7,53.5,30.28,South,180,0.0,-999.0,80,-99.99,,,0.00,Acu-Link.com,2013-09-28 22:46:00,
2013-09-28 19:01:00,58.6,52.8,30.28,West,270,0.0,-999.0,81,-99.99,,,0.00,Acu-Link.com,2013-09-28 23:01:00,
2013-09-28 19:16:00,57.6,52.5,30.28,South,180,0.0,-999.0,83,-99.99,,,0.00,Acu-Link.com,2013-09-28 23:16:00,
2013-09-28 19:31:00,56.8,51.4,30.28,South,180,0.0,-999.0,82,-99.99,,,0.00,Acu-Link.com,2013-09-28 23:31:00,
2013-09-28 19:46:00,55.9,51.8,30.28,ESE,112,0.0,-999.0,86,-99.99,,,0.00,Acu-Link.com,2013-09-28 23:46:00,
2013-09-28 20:02:00,55.0,51.5,30.28,ESE,112,0.0,-999.0,88,-99.99,,,0.00,Acu-Link.com,2013-09-29 00:02:00,
2013-09-28 20:17:00,54.0,51.1,30.28,ESE,112,0.0,-999.0,90,-99.99,,,0.00,Acu-Link.com,2013-09-29 00:17:00,
2013-09-28 20:32:00,53.2,50.6,30.28,SE,135,0.0,-999.0,91,-99.99,,,0.00,Acu-Link.com,2013-09-29 00:32:00,
2013-09-28 20:48:00,52.3,50.6,30.28,SE,135,0.0,-999.0,94,-99.99,,,0.00,Acu-Link.com,2013-09-29 00:48:00,
2013-09-28 21:03:00,52.0,50.9,30.28,South,180,0.0,-999.0,96,-99.99,,,0.00,Acu-Link.com,2013-09-29 01:03:00,
2013-09-28 21:18:00,51.4,50.6,30.28,NE,45,0.0,-999.0,97,-99.99,,,0.00,Acu-Link.com,2013-09-29 01:18:00,
2013-09-28 21:33:00,51.1,50.3,30.28,SSE,157,0.0,-999.0,97,-99.99,,,0.00,Acu-Link.com,2013-09-29 01:33:00,
2013-09-28 21:48:00,51.1,50.6,30.28,North,0,0.0,-999.0,98,-99.99,,,0.00,Acu-Link.com,2013-09-29 01:48:00,
2013-09-28 22:04:00,50.7,50.2,30.28,SSW,202,0.0,-999.0,98,-99.99,,,0.00,Acu-Link.com,2013-09-29 02:04:00,
2013-09-28 22:19:00,50.4,49.9,30.28,SSW,202,0.0,-999.0,98,-99.99,,,0.00,Acu-Link.com,2013-09-29 02:19:00,
2013-09-28 22:34:00,49.8,49.3,30.28,NNE,22,0.0,-999.0,98,-99.99,,,0.00,Acu-Link.com,2013-09-29 02:34:00,
2013-09-28 22:49:00,49.3,48.8,30.28,North,0,0.0,-999.0,98,-99.99,,,0.00,Acu-Link.com,2013-09-29 02:49:00,
2013-09-28 23:05:00,48.7,48.2,30.28,NW,315,0.0,-999.0,98,-99.99,,,0.00,Acu-Link.com,2013-09-29 03:05:00,
2013-09-28 23:20:00,48.6,48.1,30.28,North,0,0.0,-999.0,98,-99.99,,,0.00,Acu-Link.com,2013-09-29 03:20:00,
2013-09-28 23:35:00,48.4,47.9,30.28,North,0,0.0,-999.0,98,-99.99,,,0.00,Acu-Link.com,2013-09-29 03:35:00,
2013-09-28 23:51:00,47.7,47.2,30.28,North,0,0.0,-999.0,98,-99.99,,,0.00,Acu-Link.com,2013-09-29 03:51:00,